TimeEST,TemperatureF,Dew PointF,Humidity,Sea Level PressureIn,VisibilityMPH,Wind Direction,Wind SpeedMPH,Gust SpeedMPH,PrecipitationIn,Events,Conditions,WindDirDegrees,DateUTC
12:54 AM,61.0,57.0,87,29.63,8.0,West,9.2,-,N/A,,Clear,260,2013-02-27 05:54:00
1:54 AM,59.0,57.0,93,29.64,7.0,West,8.1,-,N/A,,Scattered Clouds,270,2013-02-27 06:54:00
2:54 AM,57.0,51.1,81,29.65,10.0,West,10.4,-,N/A,,Mostly Cloudy,280,2013-02-27 07:54:00
3:54 AM,55.0,48.9,80,29.65,10.0,West,9.2,-,N/A,,Mostly Cloudy,260,2013-02-27 08:54:00
4:54 AM,53.1,46.0,77,29.68,10.0,West,11.5,-,0.01,,Mostly Cloudy,260,2013-02-27 09:54:00
5:54 AM,51.1,43.0,74,29.71,10.0,WSW,13.8,-,N/A,,Mostly Cloudy,250,2013-02-27 10:54:00
6:54 AM,50.0,39.9,68,29.71,10.0,WSW,17.3,24.2,N/A,,Mostly Cloudy,250,2013-02-27 11:54:00
7:54 AM,50.0,39.0,66,29.75,10.0,West,17.3,29.9,N/A,,Mostly Cloudy,260,2013-02-27 12:54:00
8:54 AM,51.1,39.0,63,29.78,10.0,West,23.0,28.8,N/A,,Mostly Cloudy,280,2013-02-27 13:54:00
9:54 AM,51.1,39.9,66,29.80,10.0,West,17.3,25.3,N/A,,Mostly Cloudy,280,2013-02-27 14:54:00
10:54 AM,54.0,39.9,59,29.81,10.0,WNW,15.0,-,N/A,,Mostly Cloudy,300,2013-02-27 15:54:00
11:54 AM,55.9,41.0,57,29.79,10.0,WNW,12.7,21.9,N/A,,Scattered Clouds,300,2013-02-27 16:54:00
12:54 PM,57.9,41.0,53,29.77,10.0,West,10.4,-,N/A,,Scattered Clouds,280,2013-02-27 17:54:00
1:54 PM,59.0,39.9,49,29.75,10.0,WSW,15.0,-,N/A,,Scattered Clouds,240,2013-02-27 18:54:00
2:54 PM,59.0,39.9,49,29.76,10.0,WSW,11.5,-,N/A,,Clear,250,2013-02-27 19:54:00
3:54 PM,57.9,43.0,58,29.75,10.0,SSW,10.4,16.1,N/A,,Scattered Clouds,200,2013-02-27 20:54:00
4:54 PM,54.0,43.0,66,29.76,10.0,SSW,11.5,17.3,N/A,,Scattered Clouds,200,2013-02-27 21:54:00
5:54 PM,52.0,43.0,71,29.76,10.0,SSW,8.1,-,N/A,,Clear,200,2013-02-27 22:54:00
6:54 PM,51.1,43.0,74,29.77,10.0,SSW,8.1,-,N/A,,Clear,210,2013-02-27 23:54:00
7:54 PM,50.0,43.0,77,29.76,10.0,SSW,6.9,-,N/A,,Mostly Cloudy,200,2013-02-28 00:54:00
8:54 PM,48.9,43.0,80,29.77,10.0,SW,6.9,-,N/A,,Mostly Cloudy,220,2013-02-28 01:54:00
9:54 PM,48.0,42.1,80,29.77,10.0,SW,8.1,-,N/A,,Mostly Cloudy,230,2013-02-28 02:54:00
10:54 PM,46.0,41.0,83,29.76,10.0,SW,5.8,-,N/A,,Scattered Clouds,230,2013-02-28 03:54:00
11:54 PM,46.0,41.0,83,29.75,10.0,SW,6.9,-,N/A,,Clear,230,2013-02-28 04:54:00